Time;durP1;ratioP1;P1;durP2;ratioP2;P2;SDS_P1;SDS_P2;PMS_P1;PMS_P2;Temp;Humidity;BMP_temperature;BMP_pressure;BME280_temperature;BME280_humidity;BME280_pressure;Samples;Min_cycle;Max_cycle;Signal;HPM_P1;HPM_P2
2021/06/17 00:00:28;;;;;;;9.98;7.22;;;20.50;99.90;;;;;;5016584;28;20353;-89
2021/06/17 00:02:59;;;;;;;8.65;6.50;;;20.50;99.90;;;;;;5016425;28;20262;-85
2021/06/17 00:05:29;;;;;;;9.73;6.07;;;20.60;99.90;;;;;;5016216;28;20172;-90
2021/06/17 00:08:03;;;;;;;12.07;6.68;;;20.60;99.90;;;;;;5016087;28;20168;-90
2021/06/17 00:10:44;;;;;;;9.90;6.65;;;20.60;99.90;;;;;;5016012;28;20207;-88
2021/06/17 00:13:15;;;;;;;7.88;6.78;;;20.60;99.90;;;;;;5015223;28;20171;-88
2021/06/17 00:15:43;;;;;;;10.57;6.65;;;20.70;99.90;;;;;;5372745;22;20543;-89
2021/06/17 00:18:10;;;;;;;8.13;6.22;;;20.70;99.90;;;;;;5036332;28;20193;-89
2021/06/17 00:20:36;;;;;;;9.85;6.60;;;20.70;99.90;;;;;;5037196;28;20208;-90
2021/06/17 00:23:04;;;;;;;8.15;6.22;;;20.60;99.90;;;;;;5055197;28;20162;-88
2021/06/17 00:25:30;;;;;;;13.45;6.60;;;20.60;99.90;;;;;;5037343;28;20623;-89
2021/06/17 00:27:56;;;;;;;9.02;6.47;;;20.50;99.90;;;;;;5037380;28;20546;-90
2021/06/17 00:30:23;;;;;;;9.65;6.63;;;20.50;99.90;;;;;;5037178;28;20213;-89
2021/06/17 00:32:50;;;;;;;7.05;6.13;;;20.60;99.90;;;;;;5037159;28;20193;-90
2021/06/17 00:35:17;;;;;;;8.70;6.38;;;20.60;99.90;;;;;;5037007;28;20166;-90
2021/06/17 00:37:43;;;;;;;7.15;6.07;;;20.60;99.90;;;;;;5036987;28;20174;-90
2021/06/17 00:40:12;;;;;;;7.90;6.53;;;20.50;99.90;;;;;;5036879;28;20244;-89
2021/06/17 00:42:39;;;;;;;10.18;6.53;;;20.50;99.90;;;;;;5036907;28;20170;-89
2021/06/17 00:45:10;;;;;;;7.85;6.43;;;20.50;99.90;;;;;;5036708;28;20482;-90
2021/06/17 00:47:37;;;;;;;9.68;6.60;;;20.50;99.90;;;;;;5036847;28;20619;-90
2021/06/17 00:50:05;;;;;;;9.40;6.50;;;20.50;99.90;;;;;;5036802;28;20198;-89
2021/06/17 00:52:31;;;;;;;8.98;6.90;;;20.40;99.90;;;;;;5036919;28;20655;-90
2021/06/17 00:54:58;;;;;;;9.80;7.00;;;20.40;99.90;;;;;;5037226;28;20186;-88
2021/06/17 00:57:25;;;;;;;7.00;6.35;;;20.40;99.90;;;;;;5036979;28;20170;-89
2021/06/17 00:59:52;;;;;;;7.80;6.45;;;20.20;99.90;;;;;;5054486;28;20673;-91
2021/06/17 01:02:18;;;;;;;8.20;6.45;;;20.10;99.90;;;;;;5037127;28;20600;-89
2021/06/17 01:04:45;;;;;;;7.43;6.32;;;20.10;99.90;;;;;;5036936;28;20178;-88
2021/06/17 01:07:17;;;;;;;10.88;6.90;;;20.00;99.90;;;;;;5036801;28;20542;-89
2021/06/17 01:10:08;;;;;;;7.80;6.75;;;20.00;99.90;;;;;;5036680;28;20202;-90
2021/06/17 01:12:48;;;;;;;12.50;8.77;;;20.00;99.90;;;;;;5036613;28;20204;-89
2021/06/17 01:15:21;;;;;;;14.20;8.88;;;20.00;99.90;;;;;;5036673;28;20227;-90
2021/06/17 01:18:01;;;;;;;10.70;7.90;;;20.10;99.90;;;;;;5054066;28;20217;-90
2021/06/17 01:20:32;;;;;;;8.30;6.50;;;20.10;99.90;;;;;;5036865;28;20202;-89
2021/06/17 01:23:26;;;;;;;9.50;6.70;;;20.00;99.90;;;;;;5053707;28;20620;-92
2021/06/17 01:26:04;;;;;;;11.23;7.20;;;20.00;99.90;;;;;;5036631;28;20261;-91
2021/06/17 01:28:31;;;;;;;9.02;6.65;;;20.00;99.90;;;;;;5036420;28;20208;-91
2021/06/17 01:31:11;;;;;;;9.55;6.65;;;19.90;99.90;;;;;;5036189;28;20205;-89
2021/06/17 01:33:41;;;;;;;11.77;6.57;;;19.80;99.90;;;;;;5036511;28;20184;-90
2021/06/17 01:36:15;;;;;;;13.73;6.53;;;19.70;99.90;;;;;;5036494;28;20573;-89
2021/06/17 01:38:42;;;;;;;8.05;6.20;;;19.60;99.90;;;;;;5053820;28;20154;-92
2021/06/17 01:41:10;;;;;;;8.20;6.93;;;19.60;99.90;;;;;;5036403;28;20174;-88
2021/06/17 01:43:37;;;;;;;7.00;6.30;;;19.60;99.90;;;;;;5036398;28;20170;-89
2021/06/17 01:46:04;;;;;;;8.98;6.97;;;19.60;99.90;;;;;;5036395;28;20170;-89
2021/06/17 01:48:31;;;;;;;11.02;7.78;;;19.40;99.90;;;;;;5036047;28;20260;-91
2021/06/17 01:50:57;;;;;;;9.77;7.00;;;19.40;99.90;;;;;;5036177;28;20722;-88
2021/06/17 01:53:24;;;;;;;8.30;7.28;;;19.40;99.90;;;;;;5036316;28;20166;-88
2021/06/17 01:55:57;;;;;;;10.18;7.65;;;19.50;99.90;;;;;;5036117;28;20200;-91
2021/06/17 01:58:24;;;;;;;11.18;7.55;;;19.40;99.90;;;;;;5036132;28;20528;-89
2021/06/17 02:00:50;;;;;;;9.90;7.28;;;19.30;99.90;;;;;;5035774;28;20184;-89
2021/06/17 02:03:19;;;;;;;10.65;8.00;;;19.40;99.90;;;;;;5035945;28;20169;-89
2021/06/17 02:05:48;;;;;;;10.68;6.90;;;19.30;99.90;;;;;;5036335;28;20172;-88
2021/06/17 02:08:16;;;;;;;10.07;7.50;;;19.20;99.90;;;;;;5036228;28;20166;-89
2021/06/17 02:10:43;;;;;;;9.43;7.40;;;19.10;99.90;;;;;;5035738;28;20206;-89
2021/06/17 02:13:12;;;;;;;11.18;7.47;;;19.10;99.90;;;;;;5036036;28;20205;-89
2021/06/17 02:15:41;;;;;;;9.82;7.47;;;19.10;99.90;;;;;;5035889;28;20172;-90
2021/06/17 02:18:08;;;;;;;9.95;7.80;;;19.00;99.90;;;;;;5035587;28;20272;-90
2021/06/17 02:20:34;;;;;;;9.80;7.18;;;19.00;99.90;;;;;;5035661;28;20591;-90
2021/06/17 02:23:04;;;;;;;9.23;7.20;;;19.00;99.90;;;;;;5036007;28;20177;-89
2021/06/17 02:25:31;;;;;;;9.57;6.90;;;18.90;99.90;;;;;;5035782;28;20170;-91
2021/06/17 02:28:02;;;;;;;10.38;7.60;;;18.90;99.90;;;;;;5035925;28;20178;-92
2021/06/17 02:30:34;;;;;;;11.65;8.00;;;18.90;99.90;;;;;;5035417;28;20214;-90
2021/06/17 02:33:04;;;;;;;10.07;8.02;;;18.90;99.90;;;;;;5035844;28;20161;-90
2021/06/17 02:35:31;;;;;;;10.63;7.97;;;18.90;99.90;;;;;;5038391;28;20162;-89
2021/06/17 02:38:05;;;;;;;12.25;8.05;;;18.90;99.90;;;;;;5039444;28;20181;-89
2021/06/17 02:40:35;;;;;;;9.48;7.90;;;18.90;99.90;;;;;;5039109;28;20193;-90
2021/06/17 02:43:05;;;;;;;9.20;8.30;;;19.00;99.90;;;;;;5039334;28;20166;-90
2021/06/17 02:45:32;;;;;;;9.05;7.93;;;19.00;99.90;;;;;;5039506;28;20178;-89
2021/06/17 02:47:58;;;;;;;10.88;8.15;;;19.00;99.90;;;;;;5039134;28;20166;-90
2021/06/17 02:50:24;;;;;;;11.35;7.75;;;19.00;99.90;;;;;;5038979;28;20208;-89
2021/06/17 02:52:50;;;;;;;13.32;8.25;;;19.00;99.90;;;;;;5039081;28;20162;-87
2021/06/17 02:55:17;;;;;;;11.93;8.40;;;19.00;99.90;;;;;;5039206;28;20162;-89
2021/06/17 02:58:01;;;;;;;12.10;8.00;;;19.00;99.90;;;;;;5039167;28;20189;-90
2021/06/17 03:00:30;;;;;;;8.93;8.02;;;19.00;99.90;;;;;;5038774;28;20201;-89
2021/06/17 03:03:12;;;;;;;9.63;7.93;;;19.00;99.90;;;;;;5039125;28;20162;-88
2021/06/17 03:05:46;;;;;;;14.35;8.30;;;18.90;99.90;;;;;;5039074;28;20260;-90
2021/06/17 03:08:36;;;;;;;16.00;8.30;;;18.90;99.90;;;;;;5038885;28;20638;-90
2021/06/17 03:11:08;;;;;;;12.60;8.32;;;18.90;99.90;;;;;;5038852;28;20197;-88
2021/06/17 03:13:36;;;;;;;11.43;8.38;;;18.90;99.90;;;;;;5038749;28;20170;-89
2021/06/17 03:16:03;;;;;;;12.10;7.75;;;19.00;99.90;;;;;;5038528;28;20684;-90
2021/06/17 03:18:32;;;;;;;11.73;8.45;;;19.00;99.90;;;;;;5038400;28;20166;-90
2021/06/17 03:21:00;;;;;;;10.25;8.18;;;19.00;99.90;;;;;;5038623;28;20170;-89
2021/06/17 03:23:28;;;;;;;12.50;8.50;;;19.00;99.90;;;;;;5038578;28;20205;-88
2021/06/17 03:25:58;;;;;;;9.32;8.32;;;19.00;99.90;;;;;;5038612;28;20174;-92
2021/06/17 03:28:27;;;;;;;13.63;8.02;;;19.00;99.90;;;;;;5038499;28;20170;-90
2021/06/17 03:30:53;;;;;;;10.73;8.02;;;19.10;99.90;;;;;;5038275;28;20194;-91
2021/06/17 03:33:23;;;;;;;10.90;8.02;;;19.10;99.90;;;;;;5038496;28;20253;-90
2021/06/17 03:35:51;;;;;;;8.90;7.97;;;19.10;99.90;;;;;;5038307;28;20163;-89
2021/06/17 03:38:18;;;;;;;11.90;8.00;;;19.10;99.90;;;;;;5038331;28;20534;-88
2021/06/17 03:40:47;;;;;;;14.35;7.63;;;19.00;99.90;;;;;;5038035;28;20205;-88
2021/06/17 03:43:15;;;;;;;10.63;8.30;;;19.00;99.90;;;;;;5038228;28;20201;-90
2021/06/17 03:45:42;;;;;;;12.65;8.07;;;19.00;99.90;;;;;;5037891;28;20265;-90
2021/06/17 03:48:09;;;;;;;10.10;7.97;;;18.90;99.90;;;;;;5038066;28;20166;-89
2021/06/17 03:50:36;;;;;;;16.33;8.73;;;18.90;99.90;;;;;;5037754;28;20255;-89
2021/06/17 03:53:03;;;;;;;9.73;8.60;;;18.80;99.90;;;;;;5038015;28;20169;-88
2021/06/17 03:55:32;;;;;;;16.98;9.07;;;18.80;99.90;;;;;;5038012;28;20166;-89
2021/06/17 03:57:59;;;;;;;11.43;8.95;;;18.80;99.90;;;;;;5055684;28;20208;-89
2021/06/17 04:00:27;;;;;;;11.80;9.38;;;18.90;99.90;;;;;;5055398;28;20189;-91
2021/06/17 04:02:54;;;;;;;10.48;8.23;;;18.90;99.90;;;;;;5055533;28;20162;-90
2021/06/17 04:05:21;;;;;;;11.73;8.70;;;19.00;99.90;;;;;;5037776;28;20166;-89
2021/06/17 04:07:50;;;;;;;10.85;8.60;;;18.90;99.90;;;;;;5037945;28;20180;-91
2021/06/17 04:10:18;;;;;;;12.30;8.93;;;19.00;99.90;;;;;;5037469;28;20205;-88
2021/06/17 04:12:45;;;;;;;11.30;8.88;;;19.00;99.90;;;;;;5037698;28;20256;-88
2021/06/17 04:15:11;;;;;;;9.48;8.48;;;19.00;99.90;;;;;;5037716;28;20170;-90
2021/06/17 04:17:48;;;;;;;12.45;9.63;;;19.10;99.90;;;;;;5034224;28;20228;-88
2021/06/17 04:20:31;;;;;;;15.13;9.25;;;19.10;99.90;;;;;;5034212;28;20194;-91
2021/06/17 04:22:59;;;;;;;10.45;9.32;;;19.20;99.90;;;;;;5034060;28;20181;-90
2021/06/17 04:25:25;;;;;;;10.82;9.02;;;19.20;99.90;;;;;;5033973;28;20659;-92
2021/06/17 04:27:56;;;;;;;11.18;8.90;;;19.20;99.90;;;;;;5034059;28;20174;-90
2021/06/17 04:30:27;;;;;;;11.65;9.45;;;19.30;99.90;;;;;;5033708;28;20268;-89
2021/06/17 04:32:54;;;;;;;11.15;9.18;;;19.40;99.90;;;;;;5033869;28;20178;-90
2021/06/17 04:35:21;;;;;;;11.30;9.98;;;19.40;99.90;;;;;;5034019;28;20175;-91
2021/06/17 04:37:48;;;;;;;11.57;8.98;;;19.50;99.90;;;;;;5033967;28;20265;-90
2021/06/17 04:40:15;;;;;;;10.18;9.13;;;19.60;99.90;;;;;;5033698;28;20195;-89
2021/06/17 04:42:42;;;;;;;14.30;10.52;;;19.80;99.90;;;;;;5033852;28;20173;-89
2021/06/17 04:45:09;;;;;;;11.50;9.77;;;20.00;99.90;;;;;;5033934;28;20171;-90
2021/06/17 04:47:39;;;;;;;10.18;9.15;;;20.10;99.90;;;;;;5033623;28;20179;-89
2021/06/17 04:50:07;;;;;;;12.20;10.02;;;20.20;99.90;;;;;;5033464;28;20198;-90
2021/06/17 04:52:50;;;;;;;15.25;10.10;;;20.20;99.90;;;;;;5033583;28;20285;-91
2021/06/17 04:55:17;;;;;;;11.13;10.00;;;20.40;99.90;;;;;;5033641;28;20244;-90
2021/06/17 04:57:43;;;;;;;12.63;9.82;;;20.50;99.90;;;;;;5033848;28;20155;-92
2021/06/17 05:00:10;;;;;;;14.07;9.60;;;20.50;99.90;;;;;;5034399;28;20281;-90
2021/06/17 05:02:35;;;;;;;10.88;9.68;;;20.70;99.90;;;;;;5034362;28;20183;-89
2021/06/17 05:05:01;;;;;;;11.50;9.43;;;20.70;99.90;;;;;;5033329;28;20225;-87
2021/06/17 05:07:50;;;;;;;13.32;9.43;;;20.80;99.90;;;;;;5033289;28;20201;-91
2021/06/17 05:12:57;;;;;;;11.13;9.30;;;20.80;99.90;;;;;;5034580;28;20253;-89
2021/06/17 05:15:23;;;;;;;15.32;9.63;;;20.90;99.90;;;;;;5033109;28;20202;-89
2021/06/17 05:17:49;;;;;;;12.93;9.23;;;21.00;99.90;;;;;;5032937;28;20229;-89
2021/06/17 05:20:15;;;;;;;10.23;8.82;;;20.90;99.90;;;;;;5032803;28;20194;-90
2021/06/17 05:22:43;;;;;;;14.25;9.85;;;21.00;99.90;;;;;;5033039;28;20170;-92
2021/06/17 05:25:09;;;;;;;11.50;10.20;;;21.00;99.90;;;;;;5033390;28;20281;-90
2021/06/17 05:27:37;;;;;;;15.38;10.68;;;21.00;99.90;;;;;;5033802;28;20179;-93
2021/06/17 05:30:06;;;;;;;13.00;9.60;;;21.10;99.90;;;;;;5033363;28;20247;-90
2021/06/17 05:32:34;;;;;;;11.50;9.68;;;21.20;99.90;;;;;;5034978;28;20656;-91
2021/06/17 05:35:00;;;;;;;16.75;9.48;;;21.20;99.90;;;;;;5034201;28;20297;-91
2021/06/17 05:37:26;;;;;;;15.00;9.95;;;21.30;99.90;;;;;;5034368;28;20655;-90
2021/06/17 05:39:52;;;;;;;11.65;9.15;;;21.30;99.90;;;;;;5037784;28;20194;-92
2021/06/17 05:42:18;;;;;;;10.38;8.30;;;21.40;99.90;;;;;;5063875;28;20182;-88
2021/06/17 05:44:44;;;;;;;10.10;8.27;;;21.40;99.90;;;;;;5066273;28;20180;-89
2021/06/17 05:47:12;;;;;;;13.13;9.85;;;21.40;99.90;;;;;;5076487;28;20165;-92
2021/06/17 05:49:38;;;;;;;10.70;8.73;;;21.40;99.90;;;;;;5066896;28;20199;-90
2021/06/17 05:52:05;;;;;;;9.75;8.40;;;21.50;99.90;;;;;;5058829;28;20284;-91
2021/06/17 05:54:30;;;;;;;15.98;9.85;;;21.50;99.90;;;;;;5064901;28;20248;-90
2021/06/17 05:56:56;;;;;;;12.00;9.50;;;21.60;99.90;;;;;;5062515;28;20200;-87
2021/06/17 05:59:22;;;;;;;11.32;9.55;;;21.60;99.90;;;;;;5062386;28;20193;-89
2021/06/17 06:01:47;;;;;;;11.40;9.32;;;21.70;99.90;;;;;;5061682;28;20169;-90
2021/06/17 06:04:13;;;;;;;13.80;10.13;;;21.70;99.90;;;;;;5062993;28;20166;-88
2021/06/17 06:06:39;;;;;;;11.23;9.40;;;21.80;99.90;;;;;;5063150;28;20169;-91
2021/06/17 06:09:05;;;;;;;10.07;8.88;;;21.90;99.90;;;;;;5059186;28;20189;-89
2021/06/17 06:11:30;;;;;;;13.30;10.27;;;21.90;99.90;;;;;;5070858;28;20263;-89
2021/06/17 06:13:56;;;;;;;9.50;8.50;;;22.00;99.90;;;;;;5071520;28;20211;-92
2021/06/17 06:16:22;;;;;;;10.93;9.68;;;22.10;99.90;;;;;;5061629;28;20214;-90
2021/06/17 06:18:48;;;;;;;11.38;10.18;;;22.20;99.90;;;;;;5048814;28;20239;-93
2021/06/17 06:21:14;;;;;;;10.13;9.15;;;22.30;99.90;;;;;;5049552;28;20215;-91
2021/06/17 06:23:41;;;;;;;14.45;9.75;;;22.40;99.90;;;;;;5047193;28;20179;-88
2021/06/17 06:26:06;;;;;;;10.82;9.25;;;22.50;99.90;;;;;;5054227;28;20174;-92
2021/06/17 06:28:32;;;;;;;15.88;10.13;;;22.70;99.90;;;;;;5048211;28;20209;-92
2021/06/17 06:30:59;;;;;;;11.30;9.48;;;22.80;99.90;;;;;;5056962;28;20251;-90
2021/06/17 06:33:25;;;;;;;12.82;9.77;;;22.80;99.90;;;;;;5058145;28;20166;-89
2021/06/17 06:35:51;;;;;;;10.95;8.82;;;22.90;99.90;;;;;;5056049;28;20182;-95
2021/06/17 06:38:17;;;;;;;11.18;8.50;;;23.10;99.90;;;;;;5056085;28;20174;-92
2021/06/17 06:40:44;;;;;;;11.82;8.75;;;23.20;99.90;;;;;;5056209;28;20201;-92
2021/06/17 06:43:12;;;;;;;11.90;9.05;;;23.40;99.90;;;;;;5056001;28;20646;-91
2021/06/17 06:45:39;;;;;;;11.13;9.25;;;23.60;99.90;;;;;;5055437;28;20178;-93
2021/06/17 06:48:05;;;;;;;9.07;8.15;;;23.80;99.90;;;;;;5040272;28;20171;-92
2021/06/17 06:50:31;;;;;;;12.68;9.20;;;24.00;99.90;;;;;;5035567;28;20217;-92
2021/06/17 06:52:56;;;;;;;14.05;9.40;;;24.10;99.90;;;;;;5047300;28;20529;-90
2021/06/17 06:55:22;;;;;;;12.85;8.65;;;24.30;99.90;;;;;;5035884;28;20204;-94
2021/06/17 06:57:48;;;;;;;15.93;9.20;;;24.50;99.90;;;;;;5036209;28;20256;-92
2021/06/17 07:00:16;;;;;;;9.27;8.38;;;24.70;99.90;;;;;;5042558;28;20193;-93
2021/06/17 07:02:42;;;;;;;10.35;8.15;;;24.90;99.90;;;;;;5050095;28;20178;-92
2021/06/17 07:05:08;;;;;;;10.57;7.95;;;25.10;99.90;;;;;;5052751;28;20186;-91
2021/06/17 07:07:34;;;;;;;11.00;8.30;;;25.30;99.90;;;;;;5041049;28;20243;-93
2021/06/17 07:10:00;;;;;;;10.50;8.45;;;25.50;99.90;;;;;;5055543;28;20655;-92
2021/06/17 07:12:26;;;;;;;9.80;8.23;;;25.60;99.90;;;;;;5050459;28;20190;-92
2021/06/17 07:14:52;;;;;;;11.20;7.95;;;25.80;99.90;;;;;;5042483;28;20238;-92
2021/06/17 07:17:20;;;;;;;7.90;7.00;;;25.80;99.90;;;;;;5057677;28;20304;-92
2021/06/17 07:19:46;;;;;;;10.85;7.38;;;25.90;99.90;;;;;;5054948;28;20189;-91
2021/06/17 07:22:12;;;;;;;11.52;8.43;;;26.10;99.90;;;;;;5054029;28;20166;-92
2021/06/17 07:24:38;;;;;;;11.10;7.55;;;26.10;99.90;;;;;;5055260;28;20170;-90
2021/06/17 07:27:04;;;;;;;8.07;6.95;;;26.20;99.90;;;;;;5055262;28;20193;-91
2021/06/17 07:29:30;;;;;;;9.98;7.55;;;26.30;99.90;;;;;;5055394;28;20667;-93
2021/06/17 07:31:57;;;;;;;11.50;7.38;;;26.40;99.90;;;;;;5055229;28;20343;-92
2021/06/17 07:34:23;;;;;;;9.95;7.25;;;26.50;99.90;;;;;;5054948;28;20166;-92
2021/06/17 07:36:52;;;;;;;9.85;7.20;;;26.60;99.90;;;;;;5063852;28;20248;-94
2021/06/17 07:39:18;;;;;;;8.43;6.93;;;26.70;99.90;;;;;;5075089;28;20629;-92
2021/06/17 07:41:44;;;;;;;8.65;7.85;;;26.70;99.90;;;;;;5075146;28;20204;-90
2021/06/17 07:44:10;;;;;;;10.65;7.95;;;26.80;99.90;;;;;;5074996;28;20169;-91
2021/06/17 07:46:37;;;;;;;11.68;7.38;;;26.80;99.90;;;;;;5055805;28;20212;-90
2021/06/17 07:49:03;;;;;;;11.68;7.22;;;26.90;99.90;;;;;;5054834;28;20194;-91
2021/06/17 07:51:30;;;;;;;8.55;7.18;;;27.00;99.90;;;;;;5054489;28;20194;-90
2021/06/17 07:54:00;;;;;;;8.15;6.72;;;27.10;99.90;;;;;;5070707;28;20174;-93
2021/06/17 07:56:31;;;;;;;13.68;7.55;;;27.40;99.90;;;;;;5054832;28;20205;-90
2021/06/17 07:59:07;;;;;;;8.85;6.88;;;27.50;99.90;;;;;;5054542;28;20197;-94
2021/06/17 08:01:40;;;;;;;8.52;6.85;;;27.60;99.90;;;;;;5055338;28;20162;-94
2021/06/17 08:04:07;;;;;;;8.95;7.43;;;27.60;99.90;;;;;;5055516;28;20162;-92
2021/06/17 08:06:33;;;;;;;9.20;7.03;;;27.60;99.90;;;;;;5054503;28;20619;-91
2021/06/17 08:09:00;;;;;;;8.50;6.60;;;27.80;99.90;;;;;;5054319;28;20198;-90
2021/06/17 08:11:26;;;;;;;9.27;6.80;;;27.90;99.90;;;;;;5054289;28;20197;-92
2021/06/17 08:13:53;;;;;;;10.32;7.00;;;28.00;99.90;;;;;;5054247;28;20197;-91
2021/06/17 08:16:19;;;;;;;7.28;6.43;;;28.20;99.90;;;;;;5053919;28;20316;-91
2021/06/17 08:18:45;;;;;;;9.20;6.97;;;28.40;99.90;;;;;;5054057;28;20304;-90
2021/06/17 08:21:11;;;;;;;9.00;6.50;;;28.40;99.80;;;;;;5054298;28;20219;-90
2021/06/17 08:23:36;;;;;;;9.75;6.63;;;28.50;99.70;;;;;;5054741;28;20530;-89
2021/06/17 08:26:02;;;;;;;9.52;6.72;;;28.60;99.90;;;;;;5054316;28;20178;-92
2021/06/17 08:28:29;;;;;;;8.57;6.53;;;28.70;99.90;;;;;;5053856;28;20259;-91
2021/06/17 08:30:55;;;;;;;10.30;6.60;;;28.80;99.20;;;;;;5053911;28;20205;-91
2021/06/17 08:33:21;;;;;;;9.93;6.20;;;28.80;98.40;;;;;;5053802;28;20189;-91
2021/06/17 08:35:51;;;;;;;7.40;6.28;;;28.90;98.50;;;;;;5054150;28;20339;-92
2021/06/17 08:38:17;;;;;;;6.57;5.95;;;28.90;99.40;;;;;;5054030;28;20169;-91
2021/06/17 08:40:43;;;;;;;8.23;6.20;;;29.00;99.60;;;;;;5054711;28;20267;-92
2021/06/17 08:43:09;;;;;;;9.98;5.95;;;29.10;99.20;;;;;;5053559;28;20647;-90
2021/06/17 08:46:05;;;;;;;7.45;5.85;;;29.20;99.30;;;;;;5053770;28;20575;-90
2021/06/17 08:48:32;;;;;;;6.07;5.45;;;29.30;97.60;;;;;;5052498;28;20174;-91
2021/06/17 08:51:13;;;;;;;6.28;5.35;;;29.40;97.70;;;;;;5053907;28;20227;-92
2021/06/17 08:53:47;;;;;;;10.75;5.45;;;29.40;96.50;;;;;;5053474;28;20208;-91
2021/06/17 08:56:49;;;;;;;9.68;5.60;;;29.40;96.80;;;;;;5053656;28;20189;-90
2021/06/17 08:59:38;;;;;;;6.82;5.20;;;29.50;95.90;;;;;;5053172;28;20292;-92
2021/06/17 09:02:08;;;;;;;5.32;4.80;;;29.60;95.90;;;;;;5053322;28;20174;-92
2021/06/17 09:04:36;;;;;;;10.38;5.20;;;29.60;94.50;;;;;;5053085;28;20193;-90
2021/06/17 09:07:12;;;;;;;9.65;5.57;;;29.70;94.40;;;;;;5053357;28;20170;-91
2021/06/17 09:09:40;;;;;;;9.93;4.90;;;29.80;94.90;;;;;;5053149;28;20208;-90
2021/06/17 09:12:08;;;;;;;6.15;4.75;;;29.90;95.00;;;;;;5053438;28;20213;-90
2021/06/17 09:14:57;;;;;;;5.30;4.80;;;30.00;95.00;;;;;;5053346;28;20227;-91
2021/06/17 09:17:32;;;;;;;5.00;4.43;;;30.20;93.80;;;;;;5053357;28;20217;-89
2021/06/17 09:19:58;;;;;;;5.03;4.43;;;30.30;93.20;;;;;;5053338;28;20731;-90
2021/06/17 09:22:25;;;;;;;5.60;4.50;;;30.30;91.80;;;;;;5053279;28;20205;-89
2021/06/17 09:24:53;;;;;;;4.78;4.28;;;30.30;91.90;;;;;;5053325;28;20257;-90
2021/06/17 09:27:30;;;;;;;5.18;4.10;;;30.40;91.30;;;;;;5053324;28;20205;-92
2021/06/17 09:30:11;;;;;;;5.32;3.88;;;30.40;89.30;;;;;;5053247;28;20189;-90
2021/06/17 09:32:47;;;;;;;7.78;4.20;;;30.50;91.40;;;;;;5054444;28;20165;-92
2021/06/17 09:35:26;;;;;;;5.43;4.18;;;30.50;89.20;;;;;;5053010;28;20165;-91
2021/06/17 09:38:00;;;;;;;4.20;3.80;;;30.60;89.10;;;;;;5053002;28;20230;-91
2021/06/17 09:40:31;;;;;;;10.80;4.47;;;30.70;89.20;;;;;;5052870;28;20202;-91
2021/06/17 09:43:38;;;;;;;5.25;3.97;;;30.70;87.90;;;;;;5050269;28;20235;-91
2021/06/17 09:46:06;;;;;;;6.68;4.28;;;30.80;87.90;;;;;;5038905;28;20190;-89
2021/06/17 09:49:07;;;;;;;5.18;3.95;;;30.90;88.10;;;;;;5040954;28;20200;-92
2021/06/17 09:51:41;;;;;;;4.28;3.58;;;31.00;87.40;;;;;;5034520;28;20231;-91
2021/06/17 09:54:17;;;;;;;4.00;3.50;;;31.10;86.50;;;;;;5029805;28;20307;-92
2021/06/17 09:57:11;;;;;;;4.32;3.17;;;31.20;84.50;;;;;;5040150;28;20231;-90
2021/06/17 09:59:44;;;;;;;4.60;3.17;;;31.30;81.80;;;;;;5042439;28;20244;-91
2021/06/17 10:02:17;;;;;;;4.07;3.10;;;31.30;78.10;;;;;;5028752;28;20228;-92
2021/06/17 10:04:44;;;;;;;4.50;3.22;;;31.30;78.50;;;;;;5047079;28;20189;-93
2021/06/17 10:07:11;;;;;;;5.32;3.53;;;31.40;78.80;;;;;;5026607;28;20220;-94
2021/06/17 10:09:36;;;;;;;5.20;2.95;;;31.40;77.50;;;;;;5047258;28;20197;-91
2021/06/17 10:12:04;;;;;;;7.03;2.80;;;31.50;77.30;;;;;;5036164;28;20228;-90
2021/06/17 10:14:32;;;;;;;6.25;3.22;;;31.50;72.50;;;;;;5047615;28;20197;-92
2021/06/17 10:17:03;;;;;;;4.97;2.92;;;31.50;74.80;;;;;;5031933;28;20667;-89
2021/06/17 10:19:31;;;;;;;3.53;3.22;;;31.60;75.90;;;;;;5031697;28;20232;-93
2021/06/17 10:21:58;;;;;;;4.07;3.28;;;31.70;73.40;;;;;;5010385;28;20388;-91
2021/06/17 10:24:27;;;;;;;4.90;3.08;;;31.70;73.50;;;;;;5011930;28;20573;-89
2021/06/17 10:26:56;;;;;;;3.17;2.78;;;31.80;75.70;;;;;;5012786;28;20186;-91
2021/06/17 10:29:28;;;;;;;3.08;2.78;;;31.90;72.70;;;;;;5012745;28;20202;-91
2021/06/17 10:31:55;;;;;;;5.82;2.55;;;32.00;71.10;;;;;;5012990;28;20171;-90
2021/06/17 10:34:24;;;;;;;7.53;3.10;;;32.10;73.20;;;;;;5012942;28;20250;-91
2021/06/17 10:37:18;;;;;;;3.85;3.10;;;32.20;73.30;;;;;;5012714;28;20162;-90
2021/06/17 10:39:47;;;;;;;4.55;3.33;;;32.20;72.30;;;;;;5012446;28;20194;-89
2021/06/17 10:42:19;;;;;;;6.25;3.28;;;32.20;74.20;;;;;;5012649;28;20198;-91
2021/06/17 10:44:51;;;;;;;6.55;2.92;;;32.20;73.80;;;;;;5012903;28;20512;-91
2021/06/17 10:47:36;;;;;;;2.83;2.33;;;32.30;71.90;;;;;;5044095;28;20358;-93
2021/06/17 10:50:06;;;;;;;4.32;2.70;;;32.40;67.70;;;;;;5053205;28;20193;-91
2021/06/17 10:52:33;;;;;;;8.27;2.85;;;32.40;68.60;;;;;;5052898;28;20644;-91
2021/06/17 10:55:13;;;;;;;4.90;3.15;;;32.50;71.40;;;;;;5053978;28;20181;-90
2021/06/17 10:57:45;;;;;;;6.63;2.97;;;32.50;70.70;;;;;;5056942;28;20173;-90
2021/06/17 11:00:24;;;;;;;5.10;3.10;;;32.50;69.60;;;;;;5058187;28;20203;-91
2021/06/17 11:02:56;;;;;;;6.80;2.92;;;32.60;69.50;;;;;;5058382;28;20180;-92
2021/06/17 11:05:35;;;;;;;4.45;3.00;;;32.60;65.90;;;;;;5058032;28;20539;-91
2021/06/17 11:08:25;;;;;;;5.53;2.97;;;32.50;69.50;;;;;;5057616;28;20165;-89
2021/06/17 11:10:52;;;;;;;3.83;3.08;;;32.60;70.40;;;;;;5058010;28;20173;-91
2021/06/17 11:13:51;;;;;;;7.07;3.40;;;32.60;70.50;;;;;;5057737;28;20166;-90
2021/06/17 11:16:17;;;;;;;5.50;3.10;;;32.60;68.60;;;;;;5057196;28;20229;-90
2021/06/17 11:18:51;;;;;;;3.30;3.00;;;32.60;69.20;;;;;;5057492;28;20181;-89
2021/06/17 11:21:28;;;;;;;8.73;3.15;;;32.60;69.20;;;;;;5058022;28;20209;-90
2021/06/17 11:24:13;;;;;;;5.07;2.83;;;32.60;67.00;;;;;;5058411;28;20153;-90
2021/06/17 11:26:44;;;;;;;4.82;3.13;;;32.50;65.40;;;;;;5057239;28;20516;-92
2021/06/17 11:29:39;;;;;;;10.00;3.10;;;32.60;66.40;;;;;;5057184;28;20194;-90
2021/06/17 11:32:27;;;;;;;5.90;2.78;;;32.70;66.50;;;;;;5056368;28;20280;-92
2021/06/17 11:34:53;;;;;;;4.90;3.00;;;32.70;65.00;;;;;;5056650;28;20183;-91
2021/06/17 11:37:19;;;;;;;5.43;2.70;;;32.80;66.80;;;;;;5056597;28;20256;-91
2021/06/17 11:39:49;;;;;;;5.97;2.70;;;32.80;68.40;;;;;;5056772;28;20298;-91
2021/06/17 11:42:22;;;;;;;3.08;2.70;;;32.80;68.00;;;;;;5056815;28;20212;-91
2021/06/17 11:45:08;;;;;;;5.75;2.58;;;32.80;66.20;;;;;;5056797;28;20170;-91
2021/06/17 11:47:47;;;;;;;4.32;2.50;;;32.90;66.00;;;;;;5056811;28;20623;-94
2021/06/17 11:50:13;;;;;;;2.42;2.00;;;32.90;66.20;;;;;;5056181;28;20236;-91
2021/06/17 11:52:40;;;;;;;3.33;2.10;;;33.00;65.00;;;;;;5056696;28;20176;-91
2021/06/17 11:55:07;;;;;;;2.35;2.08;;;33.00;62.00;;;;;;5056282;28;20180;-92
2021/06/17 11:57:38;;;;;;;2.95;2.17;;;33.00;63.10;;;;;;5057116;28;20169;-93
2021/06/17 12:00:07;;;;;;;4.70;1.98;;;33.00;63.00;;;;;;5057227;28;20197;-92
2021/06/17 12:02:34;;;;;;;2.85;2.05;;;33.00;61.80;;;;;;5057011;28;20201;-90
2021/06/17 12:05:04;;;;;;;5.70;2.20;;;33.10;61.40;;;;;;5056734;28;20252;-91
2021/06/17 12:07:31;;;;;;;3.20;2.10;;;33.20;62.20;;;;;;5056437;28;20162;-91
2021/06/17 12:10:27;;;;;;;3.97;2.00;;;33.30;61.80;;;;;;5056374;28;20243;-92
2021/06/17 12:13:01;;;;;;;4.43;2.35;;;33.30;60.50;;;;;;5055338;28;20185;-92
2021/06/17 12:15:35;;;;;;;4.95;2.40;;;33.20;59.40;;;;;;5055969;28;20177;-90
2021/06/17 12:18:04;;;;;;;6.03;2.40;;;33.20;61.80;;;;;;5076519;28;20308;-92
2021/06/17 12:20:44;;;;;;;4.43;2.10;;;33.10;60.30;;;;;;5059484;28;20279;-92
2021/06/17 12:23:19;;;;;;;5.03;2.20;;;33.20;61.60;;;;;;5059746;28;20199;-93
2021/06/17 12:25:57;;;;;;;4.40;2.50;;;33.20;62.10;;;;;;5059675;28;20257;-91
2021/06/17 12:28:24;;;;;;;5.07;2.10;;;33.20;60.40;;;;;;5059445;28;20173;-91
2021/06/17 12:30:52;;;;;;;3.28;2.05;;;33.20;61.30;;;;;;5059891;28;20185;-93
2021/06/17 12:33:27;;;;;;;3.22;2.30;;;33.10;59.90;;;;;;5059417;28;20200;-92
2021/06/17 12:35:59;;;;;;;3.08;2.10;;;33.10;58.10;;;;;;5059532;28;20183;-92
2021/06/17 12:38:34;;;;;;;3.75;2.33;;;33.10;59.60;;;;;;5077432;28;20152;-91
2021/06/17 12:41:17;;;;;;;4.28;2.33;;;33.10;59.10;;;;;;5059427;28;20196;-91
2021/06/17 12:43:54;;;;;;;2.63;2.10;;;33.10;60.30;;;;;;5059097;28;20165;-92
2021/06/17 12:46:31;;;;;;;4.95;2.25;;;33.10;57.20;;;;;;5059702;28;20246;-91
2021/06/17 12:54:51;;;;;;;6.55;2.30;;;33.00;61.30;;;;;;5054416;28;20187;-93
2021/06/17 12:57:23;;;;;;;4.68;2.45;;;33.10;59.50;;;;;;5059244;28;20310;-93
2021/06/17 13:00:17;;;;;;;3.00;1.88;;;33.10;58.70;;;;;;5059322;28;20203;-90
2021/06/17 13:02:48;;;;;;;3.88;2.13;;;33.10;60.80;;;;;;5059460;28;20558;-92
2021/06/17 13:05:24;;;;;;;4.32;2.33;;;33.10;58.30;;;;;;5059544;28;20564;-91
2021/06/17 13:08:08;;;;;;;3.28;2.15;;;33.10;60.40;;;;;;5059314;28;20173;-90